Time;durP1;ratioP1;P1;durP2;ratioP2;P2;SDS_P1;SDS_P2;PMS_P1;PMS_P2;Temp;Humidity;BMP_temperature;BMP_pressure;BME280_temperature;BME280_humidity;BME280_pressure;Samples;Min_cycle;Max_cycle;Signal;HPM_P1;HPM_P2
2023/12/15 00:00:22;;;;;;;3.25;2.70;;;;;;;;;;5034219;28;20044;-84
2023/12/15 00:02:47;;;;;;;5.03;3.00;;;;;;;;;;5036797;28;20017;-83
2023/12/15 00:05:13;;;;;;;3.00;2.55;;;;;;;;;;5042248;28;20359;-83
2023/12/15 00:07:38;;;;;;;3.95;2.80;;;;;;;;;;5039914;28;20048;-84
2023/12/15 00:10:04;;;;;;;4.80;2.90;;;;;;;;;;5040264;28;20078;-84
2023/12/15 00:12:30;;;;;;;3.83;2.63;;;;;;;;;;5033982;28;20041;-84
2023/12/15 00:14:55;;;;;;;3.08;2.55;;;;;;;;;;5048154;28;20035;-83
2023/12/15 00:17:20;;;;;;;8.80;3.30;;;;;;;;;;5032201;28;20056;-83
2023/12/15 00:19:45;;;;;;;4.68;3.05;;;;;;;;;;5039798;28;20044;-83
2023/12/15 00:22:11;;;;;;;3.92;2.90;;;;;;;;;;5041074;28;20038;-83
2023/12/15 00:24:36;;;;;;;6.25;3.67;;;;;;;;;;5048469;28;20037;-83
2023/12/15 00:27:02;;;;;;;3.83;2.97;;;;;;;;;;5047375;28;20031;-82
2023/12/15 00:29:27;;;;;;;4.78;3.22;;;;;;;;;;5044115;28;20037;-84
2023/12/15 00:31:52;;;;;;;5.18;3.25;;;;;;;;;;5046957;28;20038;-83
2023/12/15 00:34:18;;;;;;;9.32;4.10;;;;;;;;;;5057986;28;20044;-83
2023/12/15 00:36:43;;;;;;;5.30;3.95;;;;;;;;;;5061587;28;20350;-83
2023/12/15 00:39:09;;;;;;;6.85;4.00;;;;;;;;;;5044523;28;20540;-82
2023/12/15 00:41:34;;;;;;;8.80;4.50;;;;;;;;;;5046831;28;20017;-85
2023/12/15 00:44:02;;;;;;;8.25;4.15;;;;;;;;;;5045217;28;20037;-85
2023/12/15 00:46:27;;;;;;;13.18;5.18;;;;;;;;;;5045663;28;20021;-82
2023/12/15 00:48:52;;;;;;;9.43;5.40;;;;;;;;;;5044601;28;20448;-82
2023/12/15 00:51:18;;;;;;;8.35;4.53;;;;;;;;;;5045565;28;20027;-83
2023/12/15 00:53:43;;;;;;;8.25;4.97;;;;;;;;;;5025700;28;20021;-83
2023/12/15 00:56:09;;;;;;;8.75;4.88;;;;;;;;;;5044954;28;20548;-83
2023/12/15 00:58:35;;;;;;;8.65;5.00;;;;;;;;;;5050177;28;20028;-83
2023/12/15 01:01:00;;;;;;;10.10;5.68;;;;;;;;;;5030080;28;20528;-85
2023/12/15 01:03:25;;;;;;;10.65;5.72;;;;;;;;;;5048809;28;20041;-83
2023/12/15 01:05:50;;;;;;;9.95;5.78;;;;;;;;;;5048604;28;20555;-83
2023/12/15 01:08:16;;;;;;;11.07;5.72;;;;;;;;;;5028659;28;20033;-83
2023/12/15 01:10:42;;;;;;;12.45;7.07;;;;;;;;;;5043675;28;20101;-82
2023/12/15 01:13:07;;;;;;;12.32;7.53;;;;;;;;;;5049287;28;20056;-84
2023/12/15 01:15:32;;;;;;;16.13;7.22;;;;;;;;;;5042032;28;20037;-83
2023/12/15 01:17:58;;;;;;;16.40;8.60;;;;;;;;;;5044939;28;20056;-81
2023/12/15 01:20:23;;;;;;;11.85;7.22;;;;;;;;;;5048974;28;20045;-84
2023/12/15 01:22:48;;;;;;;17.45;8.25;;;;;;;;;;5025954;28;20065;-84
2023/12/15 01:25:14;;;;;;;11.98;7.18;;;;;;;;;;5056772;28;20158;-85
2023/12/15 01:27:39;;;;;;;13.63;7.97;;;;;;;;;;5023905;28;20385;-83
2023/12/15 01:30:05;;;;;;;11.57;7.32;;;;;;;;;;5056809;28;20167;-84
2023/12/15 01:32:30;;;;;;;13.30;7.75;;;;;;;;;;5049221;28;20021;-85
2023/12/15 01:34:56;;;;;;;14.55;7.93;;;;;;;;;;5036461;28;20030;-85
2023/12/15 01:37:21;;;;;;;13.52;6.97;;;;;;;;;;5054931;28;20045;-85
2023/12/15 01:39:46;;;;;;;12.50;7.32;;;;;;;;;;5046794;28;20029;-85
2023/12/15 01:42:12;;;;;;;9.30;6.70;;;;;;;;;;5048806;28;20380;-84
2023/12/15 01:44:39;;;;;;;10.88;6.28;;;;;;;;;;5059631;28;20029;-84
2023/12/15 01:47:04;;;;;;;12.82;6.80;;;;;;;;;;5026345;28;20048;-85
2023/12/15 01:49:29;;;;;;;10.65;6.68;;;;;;;;;;5051376;28;20037;-84
2023/12/15 01:51:55;;;;;;;8.77;5.97;;;;;;;;;;5050382;28;20045;-85
2023/12/15 01:54:20;;;;;;;9.30;6.38;;;;;;;;;;5054025;28;20032;-85
2023/12/15 01:56:46;;;;;;;7.57;5.13;;;;;;;;;;5049210;28;20033;-81
2023/12/15 01:59:11;;;;;;;10.90;6.97;;;;;;;;;;5042511;28;20033;-85
2023/12/15 02:01:36;;;;;;;14.10;7.78;;;;;;;;;;5047849;28;20036;-85
2023/12/15 02:04:02;;;;;;;11.90;7.38;;;;;;;;;;5048201;28;20036;-83
2023/12/15 02:06:27;;;;;;;8.30;4.85;;;;;;;;;;5047906;28;20029;-82
2023/12/15 02:08:53;;;;;;;9.93;6.10;;;;;;;;;;5051461;28;20393;-84
2023/12/15 02:11:18;;;;;;;8.13;5.40;;;;;;;;;;5034497;28;20037;-82
2023/12/15 02:13:43;;;;;;;9.95;5.50;;;;;;;;;;5041059;28;20053;-83
2023/12/15 02:16:09;;;;;;;9.73;6.10;;;;;;;;;;5034710;28;20565;-83
2023/12/15 02:18:34;;;;;;;8.43;4.93;;;;;;;;;;5039980;28;20037;-83
2023/12/15 02:20:59;;;;;;;8.40;5.45;;;;;;;;;;5053721;28;20025;-83
2023/12/15 02:23:24;;;;;;;10.30;6.22;;;;;;;;;;5049132;28;20037;-82
2023/12/15 02:25:50;;;;;;;11.43;7.28;;;;;;;;;;5050590;28;20041;-83
2023/12/15 02:28:15;;;;;;;12.65;7.30;;;;;;;;;;5037344;28;20113;-81
2023/12/15 02:30:40;;;;;;;15.55;8.38;;;;;;;;;;5063291;28;20033;-85
2023/12/15 02:33:05;;;;;;;13.02;7.75;;;;;;;;;;5050287;28;20029;-83
2023/12/15 02:35:31;;;;;;;12.98;6.65;;;;;;;;;;5054327;28;20081;-84
2023/12/15 02:37:56;;;;;;;10.85;5.97;;;;;;;;;;5052132;28;20025;-83
2023/12/15 02:40:21;;;;;;;11.65;7.93;;;;;;;;;;5056923;28;20097;-83
2023/12/15 02:42:46;;;;;;;13.20;8.05;;;;;;;;;;5058062;28;20061;-83
2023/12/15 02:45:12;;;;;;;16.77;8.13;;;;;;;;;;5059981;28;20028;-83
2023/12/15 02:47:37;;;;;;;13.80;7.80;;;;;;;;;;5052768;28;20021;-83
2023/12/15 02:50:03;;;;;;;11.80;6.03;;;;;;;;;;5044438;28;20034;-84
2023/12/15 02:52:28;;;;;;;10.15;6.95;;;;;;;;;;5056956;28;20038;-83
2023/12/15 02:54:53;;;;;;;11.23;6.72;;;;;;;;;;5049689;28;20469;-84
2023/12/15 02:57:18;;;;;;;12.32;6.82;;;;;;;;;;5045214;28;20020;-84
2023/12/15 02:59:44;;;;;;;9.02;5.93;;;;;;;;;;5043785;28;20112;-83
2023/12/15 03:02:09;;;;;;;9.68;6.93;;;;;;;;;;5048700;28;20343;-84
2023/12/15 03:04:34;;;;;;;9.35;6.15;;;;;;;;;;5042488;28;20097;-84
2023/12/15 03:06:59;;;;;;;10.10;6.70;;;;;;;;;;5047543;28;20037;-84
2023/12/15 03:09:25;;;;;;;10.70;6.40;;;;;;;;;;5051195;28;20592;-84
2023/12/15 03:11:50;;;;;;;7.13;4.80;;;;;;;;;;5048876;28;20022;-82
2023/12/15 03:14:15;;;;;;;11.50;7.72;;;;;;;;;;5025941;28;20041;-82
2023/12/15 03:16:41;;;;;;;14.45;8.75;;;;;;;;;;5032080;28;20068;-83
2023/12/15 03:19:06;;;;;;;11.05;6.63;;;;;;;;;;5043677;28;20041;-84
2023/12/15 03:21:31;;;;;;;6.15;4.35;;;;;;;;;;5032677;28;20116;-84
2023/12/15 03:23:56;;;;;;;9.90;6.78;;;;;;;;;;5055990;28;20136;-85
2023/12/15 03:26:22;;;;;;;11.05;6.28;;;;;;;;;;5048790;28;20044;-84
2023/12/15 03:28:47;;;;;;;8.82;5.65;;;;;;;;;;5044769;28;20025;-85
2023/12/15 03:31:12;;;;;;;9.85;6.07;;;;;;;;;;5046801;28;20049;-86
2023/12/15 03:33:37;;;;;;;16.52;7.47;;;;;;;;;;5047634;28;20032;-84
2023/12/15 03:36:04;;;;;;;11.93;6.72;;;;;;;;;;5054132;28;20094;-85
2023/12/15 03:38:30;;;;;;;13.15;8.30;;;;;;;;;;5046995;28;20325;-82
2023/12/15 03:40:55;;;;;;;14.38;7.50;;;;;;;;;;5054861;28;20031;-85
2023/12/15 03:43:20;;;;;;;17.73;7.72;;;;;;;;;;5055333;28;20040;-84
2023/12/15 03:45:46;;;;;;;12.18;5.85;;;;;;;;;;5040042;28;20029;-85
2023/12/15 03:48:11;;;;;;;10.05;6.25;;;;;;;;;;5042998;28;20035;-85
2023/12/15 03:50:36;;;;;;;7.82;4.63;;;;;;;;;;5045986;28;20041;-81
2023/12/15 03:53:02;;;;;;;12.93;6.60;;;;;;;;;;5030094;28;20033;-85
2023/12/15 03:55:27;;;;;;;9.57;6.13;;;;;;;;;;5047987;28;20034;-83
2023/12/15 03:57:52;;;;;;;13.93;6.90;;;;;;;;;;5044999;28;20039;-83
2023/12/15 04:00:20;;;;;;;12.18;6.35;;;;;;;;;;5047203;28;20029;-84
2023/12/15 04:02:46;;;;;;;9.88;4.65;;;;;;;;;;5053167;28;20056;-82
2023/12/15 04:05:12;;;;;;;9.68;5.50;;;;;;;;;;5051170;28;20033;-85
2023/12/15 04:07:37;;;;;;;5.63;4.00;;;;;;;;;;5058408;28;20037;-83
2023/12/15 04:10:02;;;;;;;9.20;5.28;;;;;;;;;;5047174;28;20167;-85
2023/12/15 04:12:28;;;;;;;18.75;7.38;;;;;;;;;;5054760;28;20045;-83
2023/12/15 04:14:53;;;;;;;8.95;5.38;;;;;;;;;;5040186;28;20052;-82
2023/12/15 04:17:18;;;;;;;19.60;5.60;;;;;;;;;;5061291;28;20116;-83
2023/12/15 04:19:44;;;;;;;15.13;6.97;;;;;;;;;;5052027;28;20068;-83
2023/12/15 04:22:09;;;;;;;15.50;8.70;;;;;;;;;;5051980;28;20032;-84
2023/12/15 04:24:34;;;;;;;17.75;8.63;;;;;;;;;;5051711;28;20090;-82
2023/12/15 04:26:59;;;;;;;12.52;7.22;;;;;;;;;;5053724;28;20033;-81
2023/12/15 04:29:25;;;;;;;14.15;7.95;;;;;;;;;;5060407;28;20061;-83
2023/12/15 04:31:50;;;;;;;12.40;7.32;;;;;;;;;;5051208;28;20537;-84
2023/12/15 04:34:15;;;;;;;18.02;8.38;;;;;;;;;;5038963;28;20029;-83
2023/12/15 04:36:40;;;;;;;13.70;7.68;;;;;;;;;;5056039;28;20041;-84
2023/12/15 04:39:06;;;;;;;16.63;7.30;;;;;;;;;;5059247;28;20159;-83
2023/12/15 04:41:32;;;;;;;13.38;6.60;;;;;;;;;;5062154;28;20037;-82
2023/12/15 04:43:57;;;;;;;12.57;7.18;;;;;;;;;;5064537;28;20029;-83
2023/12/15 04:46:29;;;;;;;13.18;6.80;;;;;;;;;;5029432;28;20025;-82
2023/12/15 04:48:57;;;;;;;11.10;6.25;;;;;;;;;;5046285;28;20124;-81
2023/12/15 04:51:23;;;;;;;17.17;8.82;;;;;;;;;;5035975;28;20106;-83
2023/12/15 04:53:49;;;;;;;11.77;7.60;;;;;;;;;;5061979;28;20021;-83
2023/12/15 04:56:15;;;;;;;14.93;8.02;;;;;;;;;;5058536;28;20059;-83
2023/12/15 04:58:41;;;;;;;10.68;6.63;;;;;;;;;;5049741;28;20047;-85
2023/12/15 05:01:10;;;;;;;16.02;7.47;;;;;;;;;;5052834;28;20388;-84
2023/12/15 05:03:36;;;;;;;13.60;8.32;;;;;;;;;;5051440;28;20037;-84
2023/12/15 05:06:01;;;;;;;15.60;7.55;;;;;;;;;;5047560;28;20589;-82
2023/12/15 05:08:27;;;;;;;16.52;8.65;;;;;;;;;;5064328;28;20036;-83
2023/12/15 05:10:52;;;;;;;13.88;7.18;;;;;;;;;;5049579;28;20497;-84
2023/12/15 05:13:17;;;;;;;16.45;8.13;;;;;;;;;;5052016;28;20163;-80
2023/12/15 05:15:42;;;;;;;14.23;6.82;;;;;;;;;;5026278;28;20116;-83
2023/12/15 05:18:08;;;;;;;13.27;7.78;;;;;;;;;;5031523;28;20025;-82
2023/12/15 05:20:36;;;;;;;10.63;6.95;;;;;;;;;;5061114;28;20120;-85
2023/12/15 05:23:03;;;;;;;15.43;7.32;;;;;;;;;;5039523;28;20106;-84
2023/12/15 05:25:28;;;;;;;11.82;6.55;;;;;;;;;;5031093;28;20060;-82
2023/12/15 05:27:53;;;;;;;11.90;7.20;;;;;;;;;;5046191;28;20044;-84
2023/12/15 05:30:19;;;;;;;13.43;6.53;;;;;;;;;;5038877;28;20044;-84
2023/12/15 05:32:44;;;;;;;11.07;6.50;;;;;;;;;;5058339;28;20028;-85
2023/12/15 05:35:09;;;;;;;12.38;7.07;;;;;;;;;;5039776;28;20097;-84
2023/12/15 05:37:35;;;;;;;8.75;5.22;;;;;;;;;;5045058;28;20059;-83
2023/12/15 05:40:00;;;;;;;11.57;6.40;;;;;;;;;;5050568;28;20184;-80
2023/12/15 05:42:25;;;;;;;11.77;6.93;;;;;;;;;;5039258;28;20040;-83
2023/12/15 05:44:51;;;;;;;15.90;7.35;;;;;;;;;;5058495;28;20495;-85
2023/12/15 05:47:16;;;;;;;8.30;5.70;;;;;;;;;;5065849;28;20055;-83
2023/12/15 05:49:42;;;;;;;9.73;5.75;;;;;;;;;;5039945;28;20044;-83
2023/12/15 05:52:09;;;;;;;12.20;5.82;;;;;;;;;;5041426;28;20048;-80
2023/12/15 05:54:35;;;;;;;7.78;4.72;;;;;;;;;;5058842;28;20033;-83
2023/12/15 05:57:00;;;;;;;8.13;5.18;;;;;;;;;;5029825;28;20121;-84
2023/12/15 05:59:26;;;;;;;10.00;5.85;;;;;;;;;;5057935;28;20060;-84
2023/12/15 06:01:51;;;;;;;8.00;4.82;;;;;;;;;;5038511;28;20059;-82
2023/12/15 06:04:16;;;;;;;12.80;6.07;;;;;;;;;;5050703;28;20067;-84
2023/12/15 06:06:41;;;;;;;11.32;6.38;;;;;;;;;;5061133;28;20516;-84
2023/12/15 06:09:09;;;;;;;10.20;5.05;;;;;;;;;;5062325;28;20021;-84
2023/12/15 06:11:39;;;;;;;10.38;5.65;;;;;;;;;;5041330;28;20025;-83
2023/12/15 06:14:04;;;;;;;11.75;7.10;;;;;;;;;;5055534;28;20038;-83
2023/12/15 06:16:29;;;;;;;9.88;5.82;;;;;;;;;;5050219;28;20404;-81
2023/12/15 06:18:54;;;;;;;6.95;5.18;;;;;;;;;;5058604;28;20025;-82
2023/12/15 06:21:24;;;;;;;12.93;7.47;;;;;;;;;;5058584;28;20029;-82
2023/12/15 06:23:50;;;;;;;8.85;6.35;;;;;;;;;;5067551;28;20035;-83
2023/12/15 06:26:26;;;;;;;9.55;5.75;;;;;;;;;;5034014;28;20045;-83
2023/12/15 06:28:53;;;;;;;11.00;6.45;;;;;;;;;;5062543;28;20489;-82
2023/12/15 06:31:19;;;;;;;12.10;6.00;;;;;;;;;;5056219;28;20033;-83
2023/12/15 06:33:44;;;;;;;12.88;6.85;;;;;;;;;;5062395;28;20111;-84
2023/12/15 06:36:10;;;;;;;11.25;6.10;;;;;;;;;;5022856;28;20657;-83
2023/12/15 06:38:36;;;;;;;10.95;6.75;;;;;;;;;;5063806;28;20021;-83
2023/12/15 06:41:04;;;;;;;12.00;6.60;;;;;;;;;;5063956;28;20040;-84
2023/12/15 06:43:29;;;;;;;8.05;5.60;;;;;;;;;;5022992;28;20425;-82
2023/12/15 06:45:55;;;;;;;12.15;7.15;;;;;;;;;;5071607;28;20032;-83
2023/12/15 06:48:20;;;;;;;8.73;5.10;;;;;;;;;;5031831;28;20545;-85
2023/12/15 06:50:45;;;;;;;10.57;7.00;;;;;;;;;;5057184;28;20021;-83
2023/12/15 06:53:11;;;;;;;10.10;6.03;;;;;;;;;;5065393;28;20205;-84
2023/12/15 06:55:36;;;;;;;13.45;7.28;;;;;;;;;;5062526;28;20032;-80
2023/12/15 06:58:01;;;;;;;12.00;6.57;;;;;;;;;;5053645;28;20412;-82
2023/12/15 07:00:27;;;;;;;10.75;7.18;;;;;;;;;;5051995;28;20099;-85
2023/12/15 07:02:52;;;;;;;15.80;8.10;;;;;;;;;;5051882;28;20025;-83
2023/12/15 07:05:17;;;;;;;10.27;5.95;;;;;;;;;;5043641;28;20044;-84
2023/12/15 07:07:43;;;;;;;14.15;5.22;;;;;;;;;;5058599;28;20025;-84
2023/12/15 07:10:08;;;;;;;8.43;5.53;;;;;;;;;;5058154;28;20044;-84
2023/12/15 07:12:33;;;;;;;9.48;5.47;;;;;;;;;;5048943;28;20064;-84
2023/12/15 07:14:59;;;;;;;12.23;6.63;;;;;;;;;;5061005;28;20021;-85
2023/12/15 07:17:24;;;;;;;10.98;6.32;;;;;;;;;;5077025;28;20085;-85
2023/12/15 07:19:49;;;;;;;11.88;6.85;;;;;;;;;;5064559;28;20033;-84
2023/12/15 07:22:14;;;;;;;20.90;8.98;;;;;;;;;;5057071;28;20068;-86
2023/12/15 07:24:41;;;;;;;13.75;6.60;;;;;;;;;;5046663;28;20401;-82
2023/12/15 07:27:06;;;;;;;16.55;7.95;;;;;;;;;;5044404;28;20090;-84
2023/12/15 07:29:32;;;;;;;15.80;7.57;;;;;;;;;;5061545;28;20021;-81
2023/12/15 07:31:57;;;;;;;12.27;7.50;;;;;;;;;;5051796;28;20037;-83
2023/12/15 07:34:22;;;;;;;11.98;7.50;;;;;;;;;;5050887;28;20080;-83
2023/12/15 07:36:47;;;;;;;16.15;9.02;;;;;;;;;;5051014;28;20032;-84
2023/12/15 07:39:13;;;;;;;13.45;8.50;;;;;;;;;;5038414;28;20021;-82
2023/12/15 07:41:39;;;;;;;12.40;6.28;;;;;;;;;;5075872;28;20055;-81
2023/12/15 07:44:04;;;;;;;48.13;9.77;;;;;;;;;;5066308;28;20029;-84
2023/12/15 07:46:30;;;;;;;17.05;11.30;;;;;;;;;;5051531;28;20497;-83
2023/12/15 07:48:55;;;;;;;14.45;8.50;;;;;;;;;;5049336;28;20112;-84
2023/12/15 07:51:21;;;;;;;13.48;7.53;;;;;;;;;;5061514;28;20029;-85
2023/12/15 07:53:47;;;;;;;15.55;8.35;;;;;;;;;;5026077;28;20342;-83
2023/12/15 07:56:23;;;;;;;11.75;7.20;;;;;;;;;;5050471;28;20039;-84
2023/12/15 07:58:51;;;;;;;14.02;8.27;;;;;;;;;;5043494;28;20512;-82
2023/12/15 08:01:18;;;;;;;11.40;6.93;;;;;;;;;;5053219;28;20030;-82
2023/12/15 08:03:43;;;;;;;9.82;6.15;;;;;;;;;;5047025;28;20404;-83
2023/12/15 08:06:11;;;;;;;11.25;6.72;;;;;;;;;;5048138;28;20027;-83
2023/12/15 08:08:38;;;;;;;10.90;6.43;;;;;;;;;;5045411;28;20039;-83
2023/12/15 08:11:03;;;;;;;12.20;6.75;;;;;;;;;;5031053;28;20030;-82
2023/12/15 08:13:29;;;;;;;9.40;6.13;;;;;;;;;;5057842;28;20036;-84
2023/12/15 08:15:55;;;;;;;14.57;6.65;;;;;;;;;;5057415;28;20029;-82
2023/12/15 08:18:20;;;;;;;11.00;6.90;;;;;;;;;;5053176;28;20393;-85
2023/12/15 08:20:47;;;;;;;9.20;5.38;;;;;;;;;;5046182;28;20110;-80
2023/12/15 08:23:12;;;;;;;10.27;6.05;;;;;;;;;;5037062;28;20496;-83
2023/12/15 08:25:37;;;;;;;9.70;5.68;;;;;;;;;;5042100;28;20038;-82
2023/12/15 08:28:03;;;;;;;10.63;6.60;;;;;;;;;;5068193;28;20037;-84
2023/12/15 08:30:28;;;;;;;12.13;6.18;;;;;;;;;;5037614;28;20033;-82
2023/12/15 08:32:53;;;;;;;9.20;5.53;;;;;;;;;;5054396;28;20086;-84
2023/12/15 08:35:19;;;;;;;9.35;6.15;;;;;;;;;;5043066;28;20679;-83
2023/12/15 08:37:44;;;;;;;10.15;5.85;;;;;;;;;;5032899;28;20092;-83
2023/12/15 08:40:10;;;;;;;8.07;5.38;;;;;;;;;;5053738;28;20044;-83
2023/12/15 08:42:35;;;;;;;8.27;5.05;;;;;;;;;;5053057;28;20029;-82
2023/12/15 08:45:00;;;;;;;8.65;5.43;;;;;;;;;;5038854;28;20396;-82
2023/12/15 08:47:25;;;;;;;7.65;5.18;;;;;;;;;;5030160;28;20087;-79
2023/12/15 08:49:51;;;;;;;8.90;5.00;;;;;;;;;;5055591;28;20072;-82
2023/12/15 08:52:16;;;;;;;7.00;4.70;;;;;;;;;;5048894;28;20064;-83
2023/12/15 08:54:41;;;;;;;5.63;4.28;;;;;;;;;;5045303;28;20030;-82
2023/12/15 08:57:07;;;;;;;6.20;4.20;;;;;;;;;;5035584;28;20064;-81
2023/12/15 08:59:33;;;;;;;6.93;4.97;;;;;;;;;;5053119;28;20107;-82
2023/12/15 09:01:58;;;;;;;6.60;4.53;;;;;;;;;;5046151;28;20033;-82
2023/12/15 09:04:23;;;;;;;11.70;5.05;;;;;;;;;;5040754;28;20093;-82
2023/12/15 09:06:49;;;;;;;8.57;5.20;;;;;;;;;;5065905;28;20466;-81
2023/12/15 09:09:14;;;;;;;5.63;4.15;;;;;;;;;;5056893;28;20092;-81
2023/12/15 09:11:39;;;;;;;7.38;5.00;;;;;;;;;;5030474;28;20055;-83
2023/12/15 09:14:05;;;;;;;9.77;4.65;;;;;;;;;;5044883;28;20097;-82
2023/12/15 09:16:30;;;;;;;5.13;3.95;;;;;;;;;;5061822;28;20037;-82
2023/12/15 09:18:55;;;;;;;6.95;4.28;;;;;;;;;;5055595;28;20024;-82
2023/12/15 09:21:20;;;;;;;6.85;5.03;;;;;;;;;;5038112;28;20033;-82
2023/12/15 09:23:46;;;;;;;6.50;4.70;;;;;;;;;;5057969;28;20032;-82
2023/12/15 09:26:12;;;;;;;6.50;4.45;;;;;;;;;;5052261;28;20025;-81
2023/12/15 09:28:38;;;;;;;7.97;5.18;;;;;;;;;;5059336;28;20096;-82
2023/12/15 09:31:03;;;;;;;9.05;6.07;;;;;;;;;;5058724;28;20040;-80
2023/12/15 09:33:28;;;;;;;6.68;4.70;;;;;;;;;;5067474;28;20033;-81
2023/12/15 09:35:55;;;;;;;6.97;4.93;;;;;;;;;;5042870;28;20097;-83
2023/12/15 09:38:20;;;;;;;8.82;4.50;;;;;;;;;;5048304;28;20394;-84
2023/12/15 09:40:46;;;;;;;5.07;3.95;;;;;;;;;;5038692;28;20088;-83
2023/12/15 09:43:11;;;;;;;6.40;4.95;;;;;;;;;;5047586;28;20053;-83
2023/12/15 09:45:36;;;;;;;7.50;4.65;;;;;;;;;;5061175;28;20037;-81
2023/12/15 09:48:06;;;;;;;3.92;3.53;;;;;;;;;;5059778;28;20035;-83
2023/12/15 09:50:37;;;;;;;4.95;4.05;;;;;;;;;;5066623;22;20038;-78
2023/12/15 09:53:03;;;;;;;5.88;3.83;;;;;;;;;;5025246;28;20049;-80
2023/12/15 09:55:33;;;;;;;4.82;3.78;;;;;;;;;;5030473;28;20062;-80
2023/12/15 09:57:59;;;;;;;5.88;4.10;;;;;;;;;;5028237;28;20048;-80
2023/12/15 10:00:25;;;;;;;4.47;3.55;;;;;;;;;;5029221;28;20053;-79
2023/12/15 10:02:50;;;;;;;6.88;3.67;;;;;;;;;;5029375;28;20433;-78
2023/12/15 10:05:15;;;;;;;4.15;3.45;;;;;;;;;;5034367;28;20036;-78
2023/12/15 10:07:41;;;;;;;3.83;2.97;;;;;;;;;;5030056;28;20537;-78
2023/12/15 10:10:06;;;;;;;4.18;3.35;;;;;;;;;;5033015;28;20041;-80
2023/12/15 10:12:31;;;;;;;4.38;3.70;;;;;;;;;;5028701;28;20136;-79
2023/12/15 10:14:57;;;;;;;4.28;3.38;;;;;;;;;;5034223;28;20094;-79
2023/12/15 10:17:22;;;;;;;3.10;2.60;;;;;;;;;;5031136;28;20120;-80
2023/12/15 10:19:48;;;;;;;3.30;2.83;;;;;;;;;;5031224;28;20040;-80
2023/12/15 10:22:13;;;;;;;3.45;3.15;;;;;;;;;;5024108;28;20034;-80
2023/12/15 10:24:39;;;;;;;4.38;3.00;;;;;;;;;;5024658;28;20161;-80
2023/12/15 10:27:07;;;;;;;2.85;2.65;;;;;;;;;;5034062;28;20033;-80
2023/12/15 10:29:33;;;;;;;4.18;2.92;;;;;;;;;;5030229;28;20025;-80
2023/12/15 10:31:58;;;;;;;2.50;2.30;;;;;;;;;;5033557;28;20397;-79
2023/12/15 10:34:25;;;;;;;4.88;2.60;;;;;;;;;;5013625;28;20038;-79
2023/12/15 10:36:52;;;;;;;2.92;2.50;;;;;;;;;;5028364;28;20064;-80
2023/12/15 10:39:17;;;;;;;3.28;2.58;;;;;;;;;;5024731;28;20052;-80
2023/12/15 10:41:43;;;;;;;3.88;2.78;;;;;;;;;;5030708;28;20030;-80
2023/12/15 10:44:11;;;;;;;3.70;2.63;;;;;;;;;;5019812;28;20076;-80
2023/12/15 10:46:39;;;;;;;3.00;2.70;;;;;;;;;;5033046;28;20037;-80
2023/12/15 10:49:06;;;;;;;4.10;2.92;;;;;;;;;;5028100;28;20046;-80
2023/12/15 10:51:33;;;;;;;3.03;2.47;;;;;;;;;;5029572;28;20048;-78
2023/12/15 10:54:00;;;;;;;4.95;2.80;;;;;;;;;;5025492;28;20442;-78
2023/12/15 10:56:26;;;;;;;4.82;2.95;;;;;;;;;;5019568;28;20045;-78
2023/12/15 10:58:52;;;;;;;3.15;2.45;;;;;;;;;;5031779;28;20029;-79
2023/12/15 11:01:19;;;;;;;2.42;2.15;;;;;;;;;;5028078;28;20045;-78
2023/12/15 11:03:44;;;;;;;2.45;2.25;;;;;;;;;;5032178;28;20038;-78
2023/12/15 11:06:10;;;;;;;3.55;2.42;;;;;;;;;;5033062;28;20040;-78
2023/12/15 11:08:35;;;;;;;2.33;2.13;;;;;;;;;;5015461;28;20030;-78
2023/12/15 11:11:07;;;;;;;2.75;2.22;;;;;;;;;;5026820;28;20034;-78
2023/12/15 11:13:52;;;;;;;2.40;1.92;;;;;;;;;;5015268;28;20424;-78
2023/12/15 11:16:19;;;;;;;2.65;2.35;;;;;;;;;;5026667;28;20450;-78
2023/12/15 11:18:44;;;;;;;4.07;2.40;;;;;;;;;;5027776;28;20112;-78
2023/12/15 11:21:10;;;;;;;2.05;1.85;;;;;;;;;;5031291;28;20122;-78
2023/12/15 11:23:55;;;;;;;2.45;2.25;;;;;;;;;;5029240;28;20018;-78
2023/12/15 11:26:29;;;;;;;3.05;2.75;;;;;;;;;;5032478;28;20057;-79
2023/12/15 11:29:15;;;;;;;2.72;2.53;;;;;;;;;;5033471;28;20099;-78
2023/12/15 11:31:40;;;;;;;6.15;2.80;;;;;;;;;;5025854;28;20038;-78
2023/12/15 11:34:06;;;;;;;2.25;2.05;;;;;;;;;;5006611;28;20423;-78
2023/12/15 11:36:41;;;;;;;2.65;2.25;;;;;;;;;;5032937;28;20030;-80
2023/12/15 11:39:06;;;;;;;;;;;;;;;;;;5033209;28;20026;-77
2023/12/15 11:41:31;;;;;;;2.83;2.10;;;;;;;;;;5031444;28;20016;-79
2023/12/15 11:43:58;;;;;;;2.13;1.92;;;;;;;;;;5020734;28;20045;-79
2023/12/15 11:46:25;;;;;;;2.50;2.28;;;;;;;;;;5025675;28;20044;-79
2023/12/15 11:48:50;;;;;;;2.75;2.50;;;;;;;;;;5023077;28;20040;-79
2023/12/15 11:51:17;;;;;;;1.77;1.67;;;;;;;;;;5031477;28;20041;-79
2023/12/15 11:53:47;;;;;;;2.40;2.20;;;;;;;;;;5023001;28;20037;-79
2023/12/15 11:56:13;;;;;;;4.75;2.08;;;;;;;;;;5027486;28;20455;-79
2023/12/15 11:58:39;;;;;;;3.60;2.30;;;;;;;;;;5031639;28;20025;-79
2023/12/15 12:01:04;;;;;;;2.83;2.53;;;;;;;;;;5009768;28;20402;-79
2023/12/15 12:03:33;;;;;;;3.35;2.50;;;;;;;;;;5028438;28;20057;-79
2023/12/15 12:06:04;;;;;;;2.65;2.38;;;;;;;;;;5035608;28;20044;-79
2023/12/15 12:08:30;;;;;;;3.35;2.38;;;;;;;;;;5028029;28;20120;-78
2023/12/15 12:10:58;;;;;;;2.13;2.03;;;;;;;;;;5030577;28;20041;-78
2023/12/15 12:13:33;;;;;;;2.75;2.55;;;;;;;;;;5031435;28;20044;-78
2023/12/15 12:16:00;;;;;;;2.33;2.13;;;;;;;;;;5036743;28;20446;-78
2023/12/15 12:18:26;;;;;;;2.60;2.20;;;;;;;;;;5033712;28;20524;-78
2023/12/15 12:20:56;;;;;;;2.90;2.70;;;;;;;;;;5020985;28;20033;-78
2023/12/15 12:23:29;;;;;;;3.20;2.70;;;;;;;;;;5034844;28;20049;-78
2023/12/15 12:25:55;;;;;;;2.63;2.17;;;;;;;;;;5033777;28;20144;-78
2023/12/15 12:28:21;;;;;;;3.90;2.70;;;;;;;;;;5017449;28;20033;-78
2023/12/15 12:30:48;;;;;;;2.90;2.63;;;;;;;;;;5035725;28;20026;-78
2023/12/15 12:33:14;;;;;;;3.65;2.63;;;;;;;;;;5016461;28;20013;-78
2023/12/15 12:35:39;;;;;;;4.95;3.13;;;;;;;;;;5032198;28;20026;-78
2023/12/15 12:38:06;;;;;;;4.25;3.30;;;;;;;;;;5027366;28;20034;-78
2023/12/15 12:40:32;;;;;;;2.40;2.20;;;;;;;;;;5029489;28;20101;-78
2023/12/15 12:42:58;;;;;;;2.47;2.25;;;;;;;;;;5030173;28;20070;-78
2023/12/15 12:45:24;;;;;;;4.60;3.22;;;;;;;;;;5034475;28;20037;-78
2023/12/15 12:47:49;;;;;;;4.05;2.58;;;;;;;;;;5018842;28;20040;-78
2023/12/15 12:50:16;;;;;;;4.07;3.30;;;;;;;;;;5028526;28;20045;-78
2023/12/15 12:52:43;;;;;;;3.13;2.67;;;;;;;;;;5031009;28;20056;-78
2023/12/15 12:55:08;;;;;;;3.20;2.90;;;;;;;;;;5034335;28;20124;-78
2023/12/15 12:57:34;;;;;;;2.97;2.65;;;;;;;;;;5033025;28;20030;-78
2023/12/15 12:59:59;;;;;;;3.35;2.65;;;;;;;;;;5025834;28;20498;-78
2023/12/15 13:02:24;;;;;;;2.58;2.38;;;;;;;;;;5026756;28;20472;-78
2023/12/15 13:04:50;;;;;;;3.17;2.85;;;;;;;;;;5020345;28;20072;-78
2023/12/15 13:07:15;;;;;;;2.95;2.65;;;;;;;;;;5033472;28;20128;-78
2023/12/15 13:09:41;;;;;;;3.28;2.58;;;;;;;;;;5025136;28;20033;-78
2023/12/15 13:12:06;;;;;;;3.13;2.80;;;;;;;;;;5031031;28;20037;-79
2023/12/15 13:14:31;;;;;;;3.88;2.75;;;;;;;;;;5029286;28;20393;-78
2023/12/15 13:16:57;;;;;;;3.10;2.60;;;;;;;;;;5032608;28;20033;-78
2023/12/15 13:19:22;;;;;;;3.85;2.85;;;;;;;;;;5031703;28;20501;-78
2023/12/15 13:21:47;;;;;;;2.60;2.35;;;;;;;;;;5027403;28;20041;-78
2023/12/15 13:24:13;;;;;;;3.83;3.08;;;;;;;;;;5032132;28;20048;-78
2023/12/15 13:26:38;;;;;;;3.25;2.88;;;;;;;;;;5030445;28;20034;-79
2023/12/15 13:29:03;;;;;;;3.80;3.13;;;;;;;;;;5015249;28;20128;-79
2023/12/15 13:31:29;;;;;;;4.82;3.20;;;;;;;;;;5029780;28;20096;-78
2023/12/15 13:33:54;;;;;;;3.80;3.20;;;;;;;;;;5026221;28;20113;-78
2023/12/15 13:36:20;;;;;;;3.13;2.83;;;;;;;;;;5025482;28;20429;-78
2023/12/15 13:38:46;;;;;;;2.83;2.53;;;;;;;;;;5037133;28;20029;-78
2023/12/15 13:41:12;;;;;;;5.30;3.08;;;;;;;;;;5008109;28;20383;-78
2023/12/15 13:43:39;;;;;;;8.38;3.88;;;;;;;;;;5032217;28;20095;-78
2023/12/15 13:46:05;;;;;;;4.28;3.33;;;;;;;;;;5031064;28;20056;-78
2023/12/15 13:48:30;;;;;;;4.18;3.33;;;;;;;;;;5029639;28;20095;-78
2023/12/15 13:50:56;;;;;;;3.35;3.05;;;;;;;;;;5022445;28;20112;-78
2023/12/15 13:53:22;;;;;;;4.82;3.45;;;;;;;;;;5028325;28;20146;-78
2023/12/15 13:55:47;;;;;;;4.90;3.65;;;;;;;;;;5034340;28;20044;-78
2023/12/15 13:58:12;;;;;;;4.03;3.25;;;;;;;;;;5035764;28;20138;-78
2023/12/15 14:00:38;;;;;;;4.07;3.15;;;;;;;;;;5035026;28;20087;-78
2023/12/15 14:03:03;;;;;;;5.20;3.65;;;;;;;;;;5030038;28;20030;-78
2023/12/15 14:05:28;;;;;;;4.82;3.30;;;;;;;;;;5033968;28;20029;-78
2023/12/15 14:07:54;;;;;;;3.78;3.40;;;;;;;;;;5018011;28;20132;-78
2023/12/15 14:10:20;;;;;;;3.63;2.90;;;;;;;;;;5032528;28;20029;-78
2023/12/15 14:12:50;;;;;;;4.35;3.10;;;;;;;;;;5034744;28;20041;-78
2023/12/15 14:15:15;;;;;;;4.82;3.83;;;;;;;;;;5034474;28;20543;-79
2023/12/15 14:17:41;;;;;;;3.60;3.05;;;;;;;;;;5030407;28;20033;-79
2023/12/15 14:20:07;;;;;;;4.65;3.33;;;;;;;;;;5033891;28;20055;-79
2023/12/15 14:22:35;;;;;;;7.53;3.45;;;;;;;;;;5033216;28;20056;-78
2023/12/15 14:25:06;;;;;;;4.07;3.13;;;;;;;;;;5033644;28;20136;-78
2023/12/15 14:27:38;;;;;;;3.88;3.15;;;;;;;;;;5033181;28;20117;-78
2023/12/15 14:30:06;;;;;;;4.35;3.28;;;;;;;;;;5030878;28;20033;-78